createdAt,value
2019-03-23T00:27:23.815Z,18.60
2019-03-23T00:28:19.235Z,58.90
2019-03-23T00:29:18.510Z,61.80
2019-03-23T00:30:18.571Z,58.40
2019-03-23T00:31:18.655Z,63.40
2019-03-23T00:32:18.597Z,63.30
2019-03-23T00:33:19.759Z,64.50
2019-03-23T00:34:18.669Z,65.20
2019-03-23T00:35:22.010Z,68.60
2019-03-23T00:36:18.445Z,66.60
2019-03-23T00:37:18.627Z,67.70
2019-03-23T00:38:18.508Z,69.30
2019-03-23T00:39:18.540Z,69.70
2019-03-23T00:40:20.123Z,72.00
2019-03-23T00:41:18.610Z,73.20
2019-03-23T00:42:18.454Z,74.20
2019-03-23T00:43:18.807Z,73.70
2019-03-23T00:44:18.633Z,74.60
2019-03-23T00:45:18.601Z,73.60
2019-03-23T00:46:30.522Z,74.30
2019-03-23T00:47:18.420Z,76.20
2019-03-23T00:48:18.404Z,74.90
2019-03-23T00:49:18.294Z,76.40
2019-03-23T00:50:18.627Z,75.40
2019-03-23T00:51:18.334Z,77.90
2019-03-23T00:52:18.498Z,71.60
2019-03-23T00:53:18.513Z,79.90
2019-03-23T00:54:18.321Z,79.70
2019-03-23T00:55:18.229Z,79.80
2019-03-23T00:56:18.712Z,77.90
2019-03-23T00:57:18.257Z,74.40
2019-03-23T00:58:18.203Z,76.30
2019-03-23T00:59:18.170Z,80.30
2019-03-23T01:00:18.173Z,68.50
2019-03-23T01:01:18.153Z,78.10
2019-03-23T01:02:18.150Z,73.40
2019-03-23T01:03:18.164Z,80.80
2019-03-23T01:04:18.115Z,67.60
2019-03-23T01:05:18.149Z,73.50
2019-03-23T01:06:18.239Z,76.30
2019-03-23T01:07:18.124Z,72.80
2019-03-23T01:08:19.730Z,80.20
2019-03-23T01:09:18.054Z,72.40
2019-03-23T01:10:18.085Z,77.60
2019-03-23T01:11:18.197Z,84.70
2019-03-23T01:12:18.200Z,82.70
2019-03-23T01:13:18.934Z,82.00
2019-03-23T01:14:18.578Z,80.00
2019-03-23T01:15:18.470Z,83.40
2019-03-23T01:18:23.562Z,86.50
2019-03-23T01:19:23.544Z,89.10
2019-03-23T01:20:23.486Z,86.10
2019-03-23T01:21:23.514Z,86.50
2019-03-23T01:22:23.418Z,87.10
2019-03-23T01:23:23.377Z,84.40
2019-03-23T01:24:23.315Z,84.30
2019-03-23T01:25:23.293Z,83.60
2019-03-23T01:26:23.294Z,83.70
2019-03-23T01:27:23.304Z,86.20
2019-03-23T01:28:23.322Z,90.70
2019-03-23T01:29:23.308Z,77.00
2019-03-23T01:30:23.262Z,87.60
2019-03-23T01:31:23.224Z,87.10
2019-03-23T01:32:23.211Z,86.80
2019-03-23T01:33:23.215Z,86.20
2019-03-23T01:34:23.255Z,83.20
2019-03-23T01:35:23.192Z,84.50
2019-03-23T01:36:23.178Z,89.50
2019-03-23T01:37:23.164Z,86.30
2019-03-23T01:38:23.163Z,92.70
2019-03-23T01:39:23.143Z,83.90
2019-03-23T01:40:23.258Z,93.70
2019-03-23T01:41:23.134Z,89.40
2019-03-23T01:42:23.094Z,80.80
2019-03-23T01:43:23.109Z,86.20
2019-03-23T01:44:23.077Z,79.60
2019-03-23T01:45:23.108Z,80.50
2019-03-23T01:46:23.062Z,80.90
2019-03-23T01:47:23.050Z,80.00
2019-03-23T01:48:23.027Z,85.60
2019-03-23T01:49:23.047Z,82.90
2019-03-23T01:50:23.077Z,86.80
2019-03-23T01:51:23.011Z,86.50
2019-03-23T01:52:23.144Z,77.80
2019-03-23T01:53:23.021Z,80.20
2019-03-23T01:54:22.965Z,83.30
2019-03-23T01:55:23.002Z,78.50
2019-03-23T01:56:22.948Z,83.30
2019-03-23T01:57:23.018Z,83.30
2019-03-23T01:58:22.937Z,83.50
2019-03-23T01:59:22.918Z,88.70
2019-03-23T02:00:23.334Z,79.00
2019-03-23T02:01:22.895Z,82.10
2019-03-23T02:02:22.917Z,89.20
2019-03-23T02:03:22.875Z,80.80
2019-03-23T02:04:22.904Z,82.10
2019-03-23T02:05:22.851Z,74.20
2019-03-23T02:06:22.953Z,81.10
2019-03-23T02:07:22.831Z,91.70
2019-03-23T02:08:22.826Z,88.60
2019-03-23T02:09:22.843Z,78.50
2019-03-23T02:10:22.789Z,88.60
2019-03-23T02:11:22.783Z,90.60
2019-03-23T02:12:22.821Z,89.20
2019-03-23T02:13:22.763Z,99.00
2019-03-23T02:14:22.763Z,98.70
2019-03-23T02:15:22.747Z,99.90
2019-03-23T02:16:22.744Z,92.80
2019-03-23T02:17:22.753Z,98.30
2019-03-23T02:18:22.745Z,80.00
2019-03-23T02:19:22.687Z,90.70
2019-03-23T02:20:22.679Z,92.00
2019-03-23T02:21:22.670Z,98.30
2019-03-23T02:22:22.712Z,102.00
2019-03-23T02:23:22.653Z,83.90
2019-03-23T02:24:22.634Z,94.60
2019-03-23T02:25:22.645Z,93.50
2019-03-23T02:26:22.611Z,102.10
2019-03-23T02:27:22.642Z,95.40
2019-03-23T02:28:22.668Z,94.30
2019-03-23T02:29:22.597Z,100.10
2019-03-23T02:30:22.582Z,97.00
2019-03-23T02:31:22.558Z,88.60
2019-03-23T02:32:22.605Z,91.80
2019-03-23T02:33:22.601Z,96.10
2019-03-23T02:34:22.577Z,96.70
2019-03-23T02:35:22.518Z,95.30
2019-03-23T02:36:22.621Z,97.50
2019-03-23T02:37:27.626Z,90.50
2019-03-23T02:38:23.520Z,96.00
2019-03-23T02:39:22.514Z,93.20
2019-03-23T02:40:22.460Z,98.60
2019-03-23T02:41:22.454Z,96.80
2019-03-23T02:42:22.450Z,96.80
2019-03-23T02:43:22.472Z,98.20
2019-03-23T02:44:22.461Z,99.20
2019-03-23T02:45:22.436Z,97.50
2019-03-23T02:46:22.401Z,93.80
2019-03-23T02:47:22.383Z,94.90
2019-03-23T02:48:22.429Z,90.20
2019-03-23T02:49:22.366Z,92.50
2019-03-23T02:50:22.359Z,86.10
2019-03-23T02:51:22.360Z,79.20
2019-03-23T02:52:22.447Z,81.20
2019-03-23T02:53:22.359Z,88.40
2019-03-23T02:54:22.358Z,90.90
2019-03-23T02:55:22.298Z,92.00
2019-03-23T02:56:22.296Z,95.20
2019-03-23T02:57:22.283Z,95.80
2019-03-23T02:58:22.326Z,91.70
2019-03-23T02:59:22.301Z,91.80
2019-03-23T03:00:22.250Z,97.50
2019-03-23T03:01:22.242Z,93.40
2019-03-23T03:02:22.219Z,97.90
2019-03-23T03:03:22.238Z,97.70
2019-03-23T03:04:22.284Z,95.40
2019-03-23T03:05:22.232Z,90.00
2019-03-23T03:06:22.200Z,87.00
2019-03-23T03:07:22.173Z,80.10
2019-03-23T03:08:22.161Z,79.90
2019-03-23T03:09:22.211Z,78.10
2019-03-23T03:10:22.194Z,74.90
2019-03-23T03:11:22.157Z,75.70
2019-03-23T03:12:22.171Z,80.10
2019-03-23T03:13:22.117Z,78.50
2019-03-23T03:14:22.137Z,78.20
2019-03-23T03:15:22.131Z,76.50
2019-03-23T03:16:22.067Z,82.30
2019-03-23T03:17:22.084Z,80.20
2019-03-23T03:18:22.084Z,78.70
2019-03-23T03:19:22.054Z,73.90
2019-03-23T03:20:22.158Z,75.10
2019-03-23T03:21:22.021Z,79.40
2019-03-23T03:22:22.019Z,75.80
2019-03-23T03:23:21.996Z,75.70
2019-03-23T03:24:21.984Z,73.70
2019-03-23T03:25:22.020Z,66.80
2019-03-23T03:26:21.959Z,74.60
2019-03-23T03:27:21.989Z,72.90
2019-03-23T03:28:21.979Z,75.30
2019-03-23T03:29:21.919Z,74.10
2019-03-23T03:30:22.010Z,74.10
2019-03-23T03:31:22.032Z,78.50
2019-03-23T03:32:21.899Z,76.10
2019-03-23T03:33:21.882Z,74.50
2019-03-23T03:34:21.913Z,79.00
2019-03-23T03:35:21.867Z,71.80
2019-03-23T03:36:21.907Z,79.20
2019-03-23T03:37:21.832Z,79.00
2019-03-23T03:38:21.851Z,77.60
2019-03-23T03:39:21.816Z,78.70
2019-03-23T03:40:21.854Z,75.60
2019-03-23T03:41:21.796Z,76.80
2019-03-23T03:42:21.869Z,75.80
2019-03-23T03:43:21.804Z,82.00
2019-03-23T03:44:21.773Z,76.50
2019-03-23T03:45:21.746Z,77.30
2019-03-23T03:46:21.768Z,79.30
2019-03-23T03:47:21.796Z,75.40
2019-03-23T03:48:21.786Z,72.80
2019-03-23T03:49:21.801Z,73.70
2019-03-23T03:50:21.701Z,74.80
2019-03-23T03:51:21.683Z,72.90
2019-03-23T03:52:22.715Z,76.70
2019-03-23T03:53:21.668Z,79.40
2019-03-23T03:54:21.708Z,77.00
2019-03-23T03:55:21.664Z,76.40
2019-03-23T03:56:21.650Z,79.00
2019-03-23T03:57:21.630Z,80.00
2019-03-23T03:58:21.794Z,79.10
2019-03-23T03:59:21.686Z,76.10
2019-03-23T04:00:21.639Z,82.40
2019-03-23T04:01:21.667Z,75.90
2019-03-23T04:02:21.605Z,76.80
2019-03-23T04:03:21.833Z,78.30
2019-03-23T04:04:21.549Z,77.50
2019-03-23T04:05:21.609Z,78.40
2019-03-23T04:06:21.673Z,78.60
2019-03-23T04:07:21.637Z,79.50
2019-03-23T04:08:21.697Z,77.20
2019-03-23T04:09:21.637Z,79.20
2019-03-23T04:10:21.551Z,80.30
2019-03-23T04:11:21.558Z,79.10
2019-03-23T04:12:21.542Z,81.10
2019-03-23T04:13:21.557Z,81.90
2019-03-23T04:14:21.496Z,79.00
2019-03-23T04:15:21.541Z,76.40
2019-03-23T04:16:21.469Z,78.10
2019-03-23T04:17:21.422Z,78.60
2019-03-23T04:18:21.481Z,76.50
2019-03-23T04:19:21.514Z,83.20
2019-03-23T04:20:21.470Z,81.40
2019-03-23T04:21:21.379Z,83.20
2019-03-23T04:22:21.467Z,87.30
2019-03-23T04:23:21.388Z,86.50
2019-03-23T04:24:21.508Z,88.30
2019-03-23T04:25:21.448Z,83.60
2019-03-23T04:26:21.336Z,83.40
2019-03-23T04:27:21.433Z,84.20
2019-03-23T04:28:21.326Z,84.90
2019-03-23T04:29:21.406Z,84.70
2019-03-23T04:30:21.311Z,86.60
2019-03-23T04:31:21.294Z,81.80
2019-03-23T04:32:21.255Z,81.50
2019-03-23T04:33:21.299Z,80.60
2019-03-23T04:34:21.241Z,84.90
2019-03-23T04:35:21.274Z,84.50
2019-03-23T04:36:21.210Z,83.90
2019-03-23T04:37:21.191Z,86.60
2019-03-23T04:38:22.926Z,85.80
2019-03-23T04:39:21.250Z,87.40
2019-03-23T04:40:21.158Z,85.10
2019-03-23T04:41:21.175Z,86.80
2019-03-23T04:42:21.120Z,86.70
2019-03-23T04:43:21.157Z,83.30
2019-03-23T04:44:21.121Z,84.50
2019-03-23T04:45:21.200Z,87.70
2019-03-23T04:46:21.123Z,87.00
2019-03-23T04:47:21.185Z,87.70
2019-03-23T04:48:21.175Z,88.00
2019-03-23T04:49:21.139Z,82.20
2019-03-23T04:50:21.115Z,85.10
2019-03-23T04:51:21.048Z,82.10
2019-03-23T04:52:21.188Z,77.10
2019-03-23T04:53:21.422Z,78.20
2019-03-23T04:54:21.049Z,83.20
2019-03-23T04:55:21.074Z,86.60
2019-03-23T04:56:21.240Z,84.00
2019-03-23T04:57:21.027Z,84.20
2019-03-23T04:58:21.070Z,86.20
2019-03-23T04:59:21.059Z,80.70
2019-03-23T05:00:21.060Z,85.60
2019-03-23T05:01:20.947Z,82.60
2019-03-23T05:02:20.923Z,82.10
2019-03-23T05:03:21.009Z,74.60
2019-03-23T05:04:20.935Z,78.80
2019-03-23T05:05:20.999Z,81.20
2019-03-23T05:06:20.919Z,77.30
2019-03-23T05:07:20.891Z,80.90
2019-03-23T05:08:20.868Z,79.90
2019-03-23T05:09:20.894Z,76.30
2019-03-23T05:10:20.814Z,80.20
2019-03-23T05:11:20.846Z,80.50
2019-03-23T05:12:20.941Z,79.10
2019-03-23T05:13:20.784Z,77.00
2019-03-23T05:14:20.780Z,77.50
2019-03-23T05:15:20.833Z,78.10
2019-03-23T05:16:20.852Z,77.20
2019-03-23T05:17:20.761Z,78.00
2019-03-23T05:18:20.765Z,76.40
2019-03-23T05:19:20.718Z,68.70
2019-03-23T05:20:20.834Z,74.40
2019-03-23T05:21:20.711Z,73.10
2019-03-23T05:22:20.777Z,73.50
2019-03-23T05:23:20.713Z,72.90
2019-03-23T05:24:20.759Z,70.50
2019-03-23T05:25:20.675Z,74.40
2019-03-23T05:26:20.662Z,71.30
2019-03-23T05:27:20.712Z,73.20
2019-03-23T05:28:20.651Z,70.10
2019-03-23T05:29:20.668Z,70.30
2019-03-23T05:30:20.613Z,72.10
2019-03-23T05:31:20.599Z,69.40
2019-03-23T05:32:20.616Z,70.90
2019-03-23T05:33:20.579Z,71.10
2019-03-23T05:34:21.207Z,68.10
2019-03-23T05:35:20.576Z,69.60
2019-03-23T05:36:20.582Z,73.80
2019-03-23T05:37:20.603Z,68.60
2019-03-23T05:38:20.678Z,61.50
2019-03-23T05:39:20.591Z,68.30
2019-03-23T05:40:20.525Z,68.30
2019-03-23T05:41:20.509Z,70.20
2019-03-23T05:42:20.632Z,65.30
2019-03-23T05:43:20.542Z,63.30
2019-03-23T05:44:20.485Z,66.10
2019-03-23T05:45:20.490Z,66.80
2019-03-23T05:46:20.525Z,67.80
2019-03-23T05:47:20.594Z,67.20
2019-03-23T05:48:20.430Z,61.70
2019-03-23T05:49:20.410Z,62.50
2019-03-23T05:50:20.393Z,64.00
2019-03-23T05:51:20.557Z,62.30
2019-03-23T05:52:20.435Z,68.40
2019-03-23T05:53:21.204Z,66.40
2019-03-23T05:54:20.348Z,67.40
2019-03-23T05:55:20.365Z,65.40
2019-03-23T05:56:20.319Z,63.90
2019-03-23T05:57:20.313Z,65.70
2019-03-23T05:58:20.331Z,62.50
2019-03-23T05:59:20.371Z,64.50
2019-03-23T06:00:20.303Z,62.10
2019-03-23T06:01:20.282Z,63.30
2019-03-23T06:02:20.260Z,65.30
2019-03-23T06:03:20.297Z,61.50
2019-03-23T06:04:20.278Z,64.70
2019-03-23T06:05:20.231Z,63.60
2019-03-23T06:06:20.215Z,64.70
2019-03-23T06:07:20.227Z,62.20
2019-03-23T06:08:20.203Z,63.70
2019-03-23T06:09:20.216Z,65.30
2019-03-23T06:10:20.194Z,65.20
2019-03-23T06:11:20.151Z,66.10
2019-03-23T06:12:20.139Z,64.60
2019-03-23T06:13:20.127Z,63.50
2019-03-23T06:14:20.178Z,65.20
2019-03-23T06:15:20.104Z,63.50
2019-03-23T06:16:20.133Z,65.90
2019-03-23T06:17:20.107Z,67.20
2019-03-23T06:18:20.689Z,66.50
2019-03-23T06:19:20.107Z,65.20
2019-03-23T06:20:20.049Z,67.50
2019-03-23T06:21:20.083Z,65.50
2019-03-23T06:22:20.037Z,66.40
2019-03-23T06:23:20.027Z,67.10
2019-03-23T06:24:20.076Z,65.20
2019-03-23T06:25:19.999Z,68.70
2019-03-23T06:26:19.981Z,65.30
2019-03-23T06:27:20.011Z,63.50
2019-03-23T06:28:20.060Z,66.20
2019-03-23T06:29:20.099Z,66.70
2019-03-23T06:30:20.028Z,63.90
2019-03-23T06:31:20.000Z,65.00
2019-03-23T06:32:20.844Z,65.00
2019-03-23T06:33:19.968Z,64.00
2019-03-23T06:34:19.972Z,64.30
2019-03-23T06:35:19.893Z,65.00
2019-03-23T06:36:19.882Z,64.70
2019-03-23T06:37:19.950Z,66.40
2019-03-23T06:38:19.882Z,65.20
2019-03-23T06:39:19.888Z,64.90
2019-03-23T06:40:19.852Z,66.30
2019-03-23T06:41:19.835Z,65.60
2019-03-23T06:42:19.816Z,66.30
2019-03-23T06:43:19.823Z,66.10
2019-03-23T06:44:19.828Z,65.10
2019-03-23T06:45:19.800Z,67.40
2019-03-23T06:46:19.767Z,63.80
2019-03-23T06:47:19.758Z,64.30
2019-03-23T06:48:19.759Z,66.00
2019-03-23T06:49:19.793Z,66.10
2019-03-23T06:50:19.731Z,66.30
2019-03-23T06:51:19.761Z,65.00
2019-03-23T06:52:19.732Z,63.70
2019-03-23T06:53:19.741Z,64.70
2019-03-23T06:54:19.769Z,66.60
2019-03-23T06:55:19.707Z,64.70
2019-03-23T06:56:19.762Z,64.00
2019-03-23T06:57:19.673Z,64.50
2019-03-23T06:58:19.688Z,61.60
2019-03-23T06:59:19.738Z,64.80
2019-03-23T07:00:19.735Z,62.70
2019-03-23T07:01:19.650Z,65.70
2019-03-23T07:02:19.612Z,62.50
2019-03-23T07:03:19.666Z,62.80
2019-03-23T07:04:19.695Z,66.40
2019-03-23T07:05:19.662Z,63.90
2019-03-23T07:06:19.627Z,61.30
2019-03-23T07:07:19.558Z,66.10
2019-03-23T07:08:19.554Z,63.30
2019-03-23T07:09:19.610Z,63.10
2019-03-23T07:10:19.623Z,61.60
2019-03-23T07:11:19.576Z,62.20
2019-03-23T07:12:19.518Z,65.10
2019-03-23T07:13:19.530Z,61.70
2019-03-23T07:14:20.190Z,62.30
2019-03-23T07:15:20.616Z,63.30
2019-03-23T07:16:19.466Z,61.60
2019-03-23T07:17:19.454Z,60.30
2019-03-23T07:18:19.451Z,64.00
2019-03-23T07:19:21.237Z,61.80
2019-03-23T07:20:19.430Z,61.40
2019-03-23T07:21:19.406Z,60.80
2019-03-23T07:22:19.383Z,61.80
2019-03-23T07:23:19.479Z,61.70
2019-03-23T07:24:19.450Z,61.40
2019-03-23T07:25:19.454Z,62.20
2019-03-23T07:26:19.421Z,61.50
2019-03-23T07:27:19.458Z,61.40
2019-03-23T07:28:19.438Z,60.80
2019-03-23T07:29:19.325Z,61.80
2019-03-23T07:30:19.510Z,63.30
2019-03-23T07:31:19.315Z,62.30
2019-03-23T07:32:19.337Z,60.40
2019-03-23T07:33:19.325Z,60.30
2019-03-23T07:34:19.290Z,62.60
2019-03-23T07:35:19.325Z,60.60
2019-03-23T07:36:19.296Z,59.10
2019-03-23T07:37:19.289Z,59.40
2019-03-23T07:38:19.267Z,59.70
2019-03-23T07:39:27.205Z,58.50
2019-03-23T07:40:22.313Z,60.20
2019-03-23T07:41:19.249Z,59.00
2019-03-23T07:42:19.195Z,59.40
2019-03-23T07:43:19.223Z,58.90
2019-03-23T07:44:19.179Z,61.50
2019-03-23T07:45:19.704Z,60.80
2019-03-23T07:46:19.159Z,59.10
2019-03-23T07:47:19.247Z,58.90
2019-03-23T07:48:19.135Z,59.30
2019-03-23T07:49:19.217Z,61.00
2019-03-23T07:50:19.130Z,58.00
2019-03-23T07:51:19.212Z,58.70
2019-03-23T07:52:19.072Z,62.20
2019-03-23T07:53:19.198Z,59.10
2019-03-23T07:54:19.194Z,59.10
2019-03-23T07:55:19.207Z,62.20
2019-03-23T07:56:19.013Z,60.30
2019-03-23T07:57:19.060Z,59.10
2019-03-23T07:58:19.027Z,59.40
2019-03-23T07:59:18.983Z,58.90
2019-03-23T08:00:20.851Z,58.10
2019-03-23T08:01:18.978Z,58.90
2019-03-23T08:02:18.979Z,58.70
2019-03-23T08:03:19.021Z,59.60
2019-03-23T08:04:18.964Z,59.10
2019-03-23T08:05:19.003Z,57.80
2019-03-23T08:06:18.905Z,58.90
2019-03-23T08:07:18.898Z,60.90
2019-03-23T08:08:18.962Z,58.80
2019-03-23T08:09:20.705Z,58.00
2019-03-23T08:10:19.766Z,59.80
2019-03-23T08:11:18.890Z,59.80
2019-03-23T08:12:18.905Z,58.20
2019-03-23T08:13:19.085Z,61.60
2019-03-23T08:14:18.875Z,59.70
2019-03-23T08:15:18.902Z,60.40
2019-03-23T08:16:18.829Z,56.20
2019-03-23T08:17:18.863Z,57.00
2019-03-23T08:18:18.787Z,57.60
2019-03-23T08:19:18.777Z,58.10
2019-03-23T08:20:18.839Z,58.00
2019-03-23T08:21:18.796Z,59.70
2019-03-23T08:22:18.734Z,57.80
2019-03-23T08:23:18.707Z,59.60
2019-03-23T08:24:18.720Z,59.80
2019-03-23T08:25:18.794Z,58.70
2019-03-23T08:26:18.711Z,60.70
2019-03-23T08:27:18.719Z,59.30
2019-03-23T08:28:18.736Z,61.50
2019-03-23T08:29:18.694Z,60.10
2019-03-23T08:30:18.759Z,59.00
2019-03-23T08:31:18.653Z,59.10
2019-03-23T08:32:18.677Z,59.10
2019-03-23T08:33:18.692Z,59.10
2019-03-23T08:34:18.734Z,57.50
2019-03-23T08:35:18.734Z,58.30
2019-03-23T08:36:18.632Z,57.30
2019-03-23T08:37:18.568Z,57.40
2019-03-23T08:38:18.544Z,57.10
2019-03-23T08:39:18.548Z,57.70
2019-03-23T08:40:18.620Z,59.30
2019-03-23T08:41:18.546Z,56.40
2019-03-23T08:42:18.531Z,58.20
2019-03-23T08:43:18.494Z,58.40
2019-03-23T08:44:18.485Z,58.20
2019-03-23T08:45:18.529Z,58.70
2019-03-23T08:46:18.524Z,57.00
2019-03-23T08:47:18.484Z,59.20
2019-03-23T08:48:18.431Z,56.20
2019-03-23T08:49:18.435Z,55.70
2019-03-23T08:50:18.462Z,54.00
2019-03-23T08:51:18.432Z,52.80
2019-03-23T08:52:18.458Z,54.30
2019-03-23T08:53:18.373Z,55.90
2019-03-23T08:54:18.374Z,54.90
2019-03-23T08:55:18.432Z,51.50
2019-03-23T08:56:18.410Z,55.30
2019-03-23T08:57:18.326Z,55.30
2019-03-23T08:58:18.313Z,55.00
2019-03-23T08:59:18.318Z,52.20
2019-03-23T09:00:18.344Z,53.20
2019-03-23T09:01:18.322Z,53.60
2019-03-23T09:02:18.275Z,58.30
2019-03-23T09:03:18.350Z,52.90
2019-03-23T09:04:18.262Z,55.30
2019-03-23T09:05:18.280Z,55.60
2019-03-23T09:06:18.275Z,55.10
2019-03-23T09:07:18.295Z,51.60
2019-03-23T09:08:18.615Z,59.30
2019-03-23T09:09:18.206Z,54.70
2019-03-23T09:10:18.236Z,53.80
2019-03-23T09:11:20.678Z,53.30
2019-03-23T09:12:18.193Z,53.80
2019-03-23T09:13:18.252Z,53.50
2019-03-23T09:14:18.183Z,54.30
2019-03-23T09:15:18.137Z,55.00
2019-03-23T09:16:18.163Z,55.40
2019-03-23T09:17:18.154Z,52.40
2019-03-23T09:18:18.157Z,50.00
2019-03-23T09:19:18.130Z,53.80
2019-03-23T09:20:18.098Z,53.60
2019-03-23T09:21:18.107Z,56.00
2019-03-23T09:22:18.097Z,56.40
2019-03-23T09:23:18.041Z,54.80
2019-03-23T09:24:18.038Z,54.70
2019-03-23T09:25:18.066Z,55.40
2019-03-23T09:26:18.058Z,57.50
2019-03-23T09:27:18.007Z,57.60
2019-03-23T09:28:18.013Z,55.00
2019-03-23T09:29:17.997Z,58.10
2019-03-23T09:30:17.979Z,55.20
2019-03-23T09:31:18.059Z,54.10
2019-03-23T09:32:17.946Z,54.70
2019-03-23T09:33:17.946Z,56.00
2019-03-23T09:34:17.935Z,56.80
2019-03-23T09:35:17.926Z,57.10
2019-03-23T09:36:17.942Z,56.00
2019-03-23T09:37:17.908Z,54.90
2019-03-23T09:38:17.919Z,55.30
2019-03-23T09:39:17.892Z,53.60
2019-03-23T09:40:17.875Z,54.10
2019-03-23T09:41:17.888Z,55.00
2019-03-23T09:42:17.930Z,56.60
2019-03-23T09:43:17.866Z,56.00
2019-03-23T09:44:17.835Z,58.40
2019-03-23T09:45:17.852Z,58.20
2019-03-23T09:46:17.837Z,53.50
2019-03-23T09:47:17.823Z,55.60
2019-03-23T09:48:17.769Z,54.20
2019-03-23T09:49:17.761Z,55.90
2019-03-23T09:50:17.788Z,54.60
2019-03-23T09:51:17.800Z,53.70
2019-03-23T09:52:17.759Z,54.90
2019-03-23T09:53:17.757Z,53.90
2019-03-23T09:54:17.708Z,54.80
2019-03-23T09:55:17.698Z,51.90
2019-03-23T09:56:17.738Z,55.20
2019-03-23T09:57:17.721Z,53.20
2019-03-23T09:58:17.670Z,54.00
2019-03-23T09:59:17.650Z,52.80
2019-03-23T10:00:17.634Z,53.50
2019-03-23T10:01:17.660Z,53.00
2019-03-23T10:02:17.618Z,52.90
2019-03-23T10:03:17.635Z,53.30
2019-03-23T10:04:17.631Z,52.90
2019-03-23T10:05:17.581Z,54.70
2019-03-23T10:06:17.612Z,53.20
2019-03-23T10:07:17.566Z,56.60
2019-03-23T10:08:17.562Z,52.90
2019-03-23T10:09:17.544Z,56.60
2019-03-23T10:10:22.140Z,53.60
2019-03-23T10:11:17.575Z,53.60
2019-03-23T10:12:17.532Z,55.00
2019-03-23T10:13:17.510Z,55.80
2019-03-23T10:14:17.491Z,54.50
2019-03-23T10:15:17.473Z,53.90
2019-03-23T10:16:17.497Z,54.90
2019-03-23T10:17:17.455Z,52.90
2019-03-23T10:18:17.465Z,54.00
2019-03-23T10:19:17.521Z,56.50
2019-03-23T10:20:17.452Z,53.40
2019-03-23T10:21:17.457Z,53.70
2019-03-23T10:22:17.420Z,53.70
2019-03-23T10:23:17.391Z,54.90
2019-03-23T10:24:17.374Z,52.40
2019-03-23T10:25:17.370Z,54.10
2019-03-23T10:26:17.402Z,52.80
2019-03-23T10:27:17.341Z,52.70
2019-03-23T10:28:17.392Z,52.80
2019-03-23T10:29:17.365Z,53.60
2019-03-23T10:30:17.327Z,54.40
2019-03-23T10:31:17.356Z,52.00
2019-03-23T10:32:17.350Z,51.60
2019-03-23T10:33:17.314Z,50.80
2019-03-23T10:34:17.304Z,53.90
2019-03-23T10:35:17.265Z,54.80
2019-03-23T10:36:17.249Z,54.70
2019-03-23T10:37:17.277Z,56.70
2019-03-23T10:38:17.213Z,55.90
2019-03-23T10:39:17.204Z,58.10
2019-03-23T10:40:17.212Z,53.80
2019-03-23T10:41:17.190Z,56.10
2019-03-23T10:42:17.243Z,55.40
2019-03-23T10:43:17.170Z,56.10
2019-03-23T10:44:17.213Z,53.90
2019-03-23T10:45:17.136Z,52.50
2019-03-23T10:46:17.132Z,53.50
2019-03-23T10:47:17.132Z,52.00
2019-03-23T10:48:17.200Z,52.80
2019-03-23T10:49:17.103Z,54.60
2019-03-23T10:50:17.182Z,56.40
2019-03-23T10:51:17.150Z,54.40
2019-03-23T10:52:17.101Z,56.40
2019-03-23T10:53:23.017Z,54.80
2019-03-23T10:54:18.103Z,54.50
2019-03-23T10:55:17.089Z,52.80
2019-03-23T10:56:17.027Z,55.50
2019-03-23T10:57:17.053Z,54.10
2019-03-23T10:58:17.117Z,53.00
2019-03-23T10:59:17.032Z,55.00
2019-03-23T11:00:16.984Z,58.10
2019-03-23T11:01:16.973Z,56.60
2019-03-23T11:02:17.024Z,57.00
2019-03-23T11:03:16.988Z,53.70
2019-03-23T11:04:16.932Z,53.60
2019-03-23T11:05:16.949Z,56.90
2019-03-23T11:06:16.948Z,59.40
2019-03-23T11:07:16.915Z,56.30
2019-03-23T11:08:17.077Z,55.50
2019-03-23T11:09:16.876Z,55.30
2019-03-23T11:10:16.879Z,54.80
2019-03-23T11:11:16.846Z,55.80
2019-03-23T11:12:16.925Z,55.40
2019-03-23T11:13:16.899Z,55.00
2019-03-23T11:14:16.828Z,56.50
2019-03-23T11:15:16.810Z,57.20
2019-03-23T11:16:16.799Z,57.30
2019-03-23T11:17:16.835Z,56.50
2019-03-23T11:18:17.715Z,53.90
2019-03-23T11:19:16.759Z,55.80
2019-03-23T11:20:16.811Z,55.40
2019-03-23T11:21:16.830Z,51.60
2019-03-23T11:22:16.722Z,53.30
2019-03-23T11:23:16.769Z,54.80
2019-03-23T11:24:16.764Z,54.50
2019-03-23T11:25:16.709Z,58.00
2019-03-23T11:26:16.684Z,54.40
2019-03-23T11:27:16.724Z,53.00
2019-03-23T11:28:16.718Z,53.00
2019-03-23T11:29:16.671Z,53.20
2019-03-23T11:30:16.688Z,52.00
2019-03-23T11:31:16.674Z,54.10
2019-03-23T11:32:16.621Z,53.60
2019-03-23T11:33:16.652Z,53.20
2019-03-23T11:34:18.077Z,54.60
2019-03-23T11:35:16.667Z,56.00
2019-03-23T11:36:16.579Z,53.40
2019-03-23T11:37:16.676Z,52.70
2019-03-23T11:38:16.613Z,53.20
2019-03-23T11:39:16.552Z,57.10
2019-03-23T11:40:16.552Z,53.40
2019-03-23T11:41:16.523Z,51.70
2019-03-23T11:42:16.511Z,55.30
2019-03-23T11:43:16.607Z,52.40
2019-03-23T11:44:16.548Z,54.50
2019-03-23T11:45:16.481Z,55.30
2019-03-23T11:46:17.108Z,51.90
2019-03-23T11:47:16.524Z,53.60
2019-03-23T11:48:16.538Z,55.20
2019-03-23T11:49:16.447Z,55.20
2019-03-23T11:50:16.426Z,54.30
2019-03-23T11:51:16.623Z,56.00
2019-03-23T11:52:16.414Z,56.80
2019-03-23T11:53:16.447Z,54.50
2019-03-23T11:54:16.392Z,54.60
2019-03-23T11:55:16.376Z,52.50
2019-03-23T11:56:16.369Z,52.40
2019-03-23T11:57:16.356Z,51.00
2019-03-23T11:58:16.388Z,54.50
2019-03-23T11:59:16.377Z,56.40
2019-03-23T12:00:16.324Z,56.20
2019-03-23T12:01:16.310Z,57.80
2019-03-23T12:02:16.306Z,57.60
2019-03-23T12:03:16.326Z,57.00
2019-03-23T12:04:16.279Z,56.50
2019-03-23T12:05:16.364Z,55.10
2019-03-23T12:06:16.253Z,56.30
2019-03-23T12:07:16.241Z,54.60
2019-03-23T12:08:17.247Z,53.20
2019-03-23T12:09:16.226Z,52.40
2019-03-23T12:10:16.205Z,55.00
2019-03-23T12:11:16.216Z,55.00
2019-03-23T12:12:16.207Z,52.30
2019-03-23T12:13:16.188Z,53.90
2019-03-23T12:14:16.218Z,55.30
2019-03-23T12:15:16.159Z,53.90
2019-03-23T12:16:16.188Z,55.90
2019-03-23T12:17:16.181Z,53.60
2019-03-23T12:18:16.123Z,59.80
2019-03-23T12:19:16.201Z,56.00
2019-03-23T12:20:16.101Z,56.80
2019-03-23T12:21:16.089Z,54.90
2019-03-23T12:22:16.092Z,54.90
2019-03-23T12:23:16.062Z,55.10
2019-03-23T12:24:16.102Z,53.80
2019-03-23T12:25:16.048Z,55.60
2019-03-23T12:26:16.087Z,54.40
2019-03-23T12:27:16.019Z,54.80
2019-03-23T12:28:16.010Z,54.80
2019-03-23T12:29:16.045Z,54.70
2019-03-23T12:30:15.988Z,55.80
2019-03-23T12:31:15.994Z,54.90
2019-03-23T12:32:15.967Z,51.50
2019-03-23T12:33:16.000Z,56.40
2019-03-23T12:34:16.743Z,54.30
2019-03-23T12:35:15.935Z,55.20
2019-03-23T12:36:15.922Z,55.20
2019-03-23T12:37:15.951Z,57.90
2019-03-23T12:38:15.914Z,55.30
2019-03-23T12:39:15.944Z,54.30
2019-03-23T12:40:15.890Z,53.80
2019-03-23T12:41:22.994Z,55.80
2019-03-23T12:42:16.870Z,52.30
2019-03-23T12:43:15.865Z,53.30
2019-03-23T12:44:15.973Z,55.50
2019-03-23T12:45:15.868Z,53.50
2019-03-23T12:46:15.817Z,55.30
2019-03-23T12:47:15.840Z,56.80
2019-03-23T12:48:15.793Z,54.20
2019-03-23T12:49:16.810Z,54.10
2019-03-23T12:50:15.806Z,51.80
2019-03-23T12:51:15.796Z,52.40
2019-03-23T12:52:15.765Z,53.70
2019-03-23T12:53:15.770Z,53.20
2019-03-23T12:54:15.881Z,55.20
2019-03-23T12:55:15.712Z,53.90
2019-03-23T12:56:15.710Z,54.50
2019-03-23T12:57:15.753Z,53.80
2019-03-23T12:58:15.682Z,54.30
2019-03-23T12:59:15.728Z,55.30
2019-03-23T13:00:15.657Z,55.90
2019-03-23T13:01:15.684Z,57.20
2019-03-23T13:02:15.635Z,54.30
2019-03-23T13:03:15.641Z,54.70
2019-03-23T13:04:17.250Z,55.80
2019-03-23T13:05:15.604Z,56.30
2019-03-23T13:06:15.592Z,52.50
2019-03-23T13:07:15.582Z,55.80
2019-03-23T13:08:15.608Z,57.20
2019-03-23T13:09:15.603Z,54.40
2019-03-23T13:10:15.586Z,53.40
2019-03-23T13:11:23.105Z,55.80
2019-03-23T13:12:15.521Z,55.40
2019-03-23T13:13:15.514Z,52.60
2019-03-23T13:14:15.540Z,55.70
2019-03-23T13:15:15.504Z,54.00
2019-03-23T13:16:15.501Z,55.00
2019-03-23T13:17:15.509Z,50.60
2019-03-23T13:18:15.469Z,52.30
2019-03-23T13:19:15.522Z,54.90
2019-03-23T13:20:15.641Z,52.50
2019-03-23T13:21:15.437Z,53.70